sensor_id;sensor_type;location;lat;lon;timestamp;temperature;humidity
31369;DHT22;18004;48.416;10.066;2023-04-03T00:02:17;3.40;98.70
31369;DHT22;18004;48.416;10.066;2023-04-03T00:04:43;3.40;96.20
31369;DHT22;18004;48.416;10.066;2023-04-03T00:07:09;3.40;94.80
31369;DHT22;18004;48.416;10.066;2023-04-03T00:09:34;3.40;94.10
31369;DHT22;18004;48.416;10.066;2023-04-03T00:12:00;3.40;93.70
31369;DHT22;18004;48.416;10.066;2023-04-03T00:14:26;3.40;91.80
31369;DHT22;18004;48.416;10.066;2023-04-03T00:16:53;3.40;90.90
31369;DHT22;18004;48.416;10.066;2023-04-03T00:19:18;3.40;90.00
31369;DHT22;18004;48.416;10.066;2023-04-03T00:21:45;3.40;85.30
31369;DHT22;18004;48.416;10.066;2023-04-03T00:24:11;3.30;86.70
31369;DHT22;18004;48.416;10.066;2023-04-03T00:26:36;3.30;84.80
31369;DHT22;18004;48.416;10.066;2023-04-03T00:29:03;3.30;85.20
31369;DHT22;18004;48.416;10.066;2023-04-03T00:31:28;3.40;83.70
31369;DHT22;18004;48.416;10.066;2023-04-03T00:33:54;3.40;84.20
31369;DHT22;18004;48.416;10.066;2023-04-03T00:36:20;3.40;82.50
31369;DHT22;18004;48.416;10.066;2023-04-03T00:38:46;3.30;81.40
31369;DHT22;18004;48.416;10.066;2023-04-03T00:41:11;3.30;81.90
31369;DHT22;18004;48.416;10.066;2023-04-03T00:43:37;3.30;81.60
31369;DHT22;18004;48.416;10.066;2023-04-03T00:46:03;3.30;81.30
31369;DHT22;18004;48.416;10.066;2023-04-03T00:48:39;3.40;80.40
31369;DHT22;18004;48.416;10.066;2023-04-03T00:51:08;3.30;80.20
31369;DHT22;18004;48.416;10.066;2023-04-03T00:54:02;3.30;81.50
31369;DHT22;18004;48.416;10.066;2023-04-03T00:56:33;3.20;80.20
31369;DHT22;18004;48.416;10.066;2023-04-03T00:59:04;3.20;81.00
31369;DHT22;18004;48.416;10.066;2023-04-03T01:01:31;3.20;80.30
31369;DHT22;18004;48.416;10.066;2023-04-03T01:03:59;3.20;80.30
31369;DHT22;18004;48.416;10.066;2023-04-03T01:06:29;3.20;81.00
31369;DHT22;18004;48.416;10.066;2023-04-03T01:08:59;3.20;80.80
31369;DHT22;18004;48.416;10.066;2023-04-03T01:11:25;3.20;78.00
31369;DHT22;18004;48.416;10.066;2023-04-03T01:13:52;3.10;77.50
31369;DHT22;18004;48.416;10.066;2023-04-03T01:16:18;3.10;79.10
31369;DHT22;18004;48.416;10.066;2023-04-03T01:18:45;3.10;79.50
31369;DHT22;18004;48.416;10.066;2023-04-03T01:21:36;3.00;79.60
31369;DHT22;18004;48.416;10.066;2023-04-03T01:26:33;3.00;78.40
31369;DHT22;18004;48.416;10.066;2023-04-03T01:28:59;3.00;78.50
31369;DHT22;18004;48.416;10.066;2023-04-03T01:31:48;3.00;77.90
31369;DHT22;18004;48.416;10.066;2023-04-03T01:34:14;3.10;77.00
31369;DHT22;18004;48.416;10.066;2023-04-03T01:36:40;3.10;73.40
31369;DHT22;18004;48.416;10.066;2023-04-03T01:39:07;3.10;74.90
31369;DHT22;18004;48.416;10.066;2023-04-03T01:41:33;3.10;73.40
31369;DHT22;18004;48.416;10.066;2023-04-03T01:43:58;3.00;73.30
31369;DHT22;18004;48.416;10.066;2023-04-03T01:46:24;3.10;73.40
31369;DHT22;18004;48.416;10.066;2023-04-03T01:48:50;3.10;72.90
31369;DHT22;18004;48.416;10.066;2023-04-03T01:51:16;3.00;67.90
31369;DHT22;18004;48.416;10.066;2023-04-03T01:53:42;3.00;68.00
31369;DHT22;18004;48.416;10.066;2023-04-03T01:56:08;3.00;67.60
31369;DHT22;18004;48.416;10.066;2023-04-03T01:58:34;3.00;68.50
31369;DHT22;18004;48.416;10.066;2023-04-03T02:01:00;3.00;69.80
31369;DHT22;18004;48.416;10.066;2023-04-03T02:03:27;3.00;69.40
31369;DHT22;18004;48.416;10.066;2023-04-03T02:05:52;3.00;70.30
31369;DHT22;18004;48.416;10.066;2023-04-03T02:08:18;3.00;68.80
31369;DHT22;18004;48.416;10.066;2023-04-03T02:10:46;3.00;70.10
31369;DHT22;18004;48.416;10.066;2023-04-03T02:13:12;3.00;70.10
31369;DHT22;18004;48.416;10.066;2023-04-03T02:15:39;3.00;71.10
31369;DHT22;18004;48.416;10.066;2023-04-03T02:18:05;3.00;72.00
31369;DHT22;18004;48.416;10.066;2023-04-03T02:20:31;3.00;73.30
31369;DHT22;18004;48.416;10.066;2023-04-03T02:22:57;3.00;72.70
31369;DHT22;18004;48.416;10.066;2023-04-03T02:25:23;3.00;73.30
31369;DHT22;18004;48.416;10.066;2023-04-03T02:27:49;3.00;73.30
31369;DHT22;18004;48.416;10.066;2023-04-03T02:30:15;3.00;73.30
31369;DHT22;18004;48.416;10.066;2023-04-03T02:32:42;3.00;73.30
31369;DHT22;18004;48.416;10.066;2023-04-03T02:35:08;3.00;73.30
31369;DHT22;18004;48.416;10.066;2023-04-03T02:37:34;3.00;70.70
31369;DHT22;18004;48.416;10.066;2023-04-03T02:40:00;3.00;73.30
31369;DHT22;18004;48.416;10.066;2023-04-03T02:42:26;2.90;74.20
31369;DHT22;18004;48.416;10.066;2023-04-03T02:44:52;2.90;75.00
31369;DHT22;18004;48.416;10.066;2023-04-03T02:47:17;2.90;77.20
31369;DHT22;18004;48.416;10.066;2023-04-03T02:49:43;2.90;78.30
31369;DHT22;18004;48.416;10.066;2023-04-03T02:52:10;2.90;79.80
31369;DHT22;18004;48.416;10.066;2023-04-03T02:54:36;2.90;79.70
31369;DHT22;18004;48.416;10.066;2023-04-03T02:57:02;2.90;80.60
31369;DHT22;18004;48.416;10.066;2023-04-03T02:59:27;2.90;81.70
31369;DHT22;18004;48.416;10.066;2023-04-03T03:01:53;2.90;79.90
31369;DHT22;18004;48.416;10.066;2023-04-03T03:04:19;2.90;78.30
31369;DHT22;18004;48.416;10.066;2023-04-03T03:06:45;2.80;75.00
31369;DHT22;18004;48.416;10.066;2023-04-03T03:09:12;2.80;73.20
31369;DHT22;18004;48.416;10.066;2023-04-03T03:11:38;2.80;73.50
31369;DHT22;18004;48.416;10.066;2023-04-03T03:14:05;2.80;64.00
31369;DHT22;18004;48.416;10.066;2023-04-03T03:16:30;2.80;62.60
31369;DHT22;18004;48.416;10.066;2023-04-03T03:18:56;2.80;63.80
31369;DHT22;18004;48.416;10.066;2023-04-03T03:21:22;2.80;63.30
31369;DHT22;18004;48.416;10.066;2023-04-03T03:23:48;2.80;61.30
31369;DHT22;18004;48.416;10.066;2023-04-03T03:26:14;2.80;59.90
31369;DHT22;18004;48.416;10.066;2023-04-03T03:28:40;2.80;59.80
31369;DHT22;18004;48.416;10.066;2023-04-03T03:31:06;2.80;57.80
31369;DHT22;18004;48.416;10.066;2023-04-03T03:33:33;2.70;56.80
31369;DHT22;18004;48.416;10.066;2023-04-03T03:35:59;2.70;57.00
31369;DHT22;18004;48.416;10.066;2023-04-03T03:38:25;2.70;54.90
31369;DHT22;18004;48.416;10.066;2023-04-03T03:40:52;2.70;57.40
31369;DHT22;18004;48.416;10.066;2023-04-03T03:43:18;2.70;56.60
31369;DHT22;18004;48.416;10.066;2023-04-03T03:45:44;2.70;56.50
31369;DHT22;18004;48.416;10.066;2023-04-03T03:48:11;2.70;53.50
31369;DHT22;18004;48.416;10.066;2023-04-03T03:50:37;2.70;54.10
31369;DHT22;18004;48.416;10.066;2023-04-03T03:53:02;2.70;55.50
31369;DHT22;18004;48.416;10.066;2023-04-03T03:55:28;2.70;55.20
31369;DHT22;18004;48.416;10.066;2023-04-03T03:57:54;2.70;56.60
31369;DHT22;18004;48.416;10.066;2023-04-03T04:00:20;2.70;57.60
31369;DHT22;18004;48.416;10.066;2023-04-03T04:02:46;2.70;57.30
31369;DHT22;18004;48.416;10.066;2023-04-03T04:05:12;2.70;56.40
31369;DHT22;18004;48.416;10.066;2023-04-03T04:07:38;2.70;57.30
31369;DHT22;18004;48.416;10.066;2023-04-03T04:10:04;2.70;58.10
31369;DHT22;18004;48.416;10.066;2023-04-03T04:12:30;2.70;58.40
31369;DHT22;18004;48.416;10.066;2023-04-03T04:14:56;2.70;56.80
31369;DHT22;18004;48.416;10.066;2023-04-03T04:17:21;2.70;57.10
31369;DHT22;18004;48.416;10.066;2023-04-03T04:19:47;2.70;57.80
31369;DHT22;18004;48.416;10.066;2023-04-03T04:22:13;2.70;56.60
31369;DHT22;18004;48.416;10.066;2023-04-03T04:24:39;2.70;58.20
31369;DHT22;18004;48.416;10.066;2023-04-03T04:27:05;2.70;59.20
31369;DHT22;18004;48.416;10.066;2023-04-03T04:29:31;2.70;59.20
31369;DHT22;18004;48.416;10.066;2023-04-03T04:32:02;2.70;60.40
31369;DHT22;18004;48.416;10.066;2023-04-03T04:34:28;2.70;62.20
31369;DHT22;18004;48.416;10.066;2023-04-03T04:36:53;2.70;63.50
31369;DHT22;18004;48.416;10.066;2023-04-03T04:39:19;2.70;64.60
31369;DHT22;18004;48.416;10.066;2023-04-03T04:41:45;2.70;66.30
31369;DHT22;18004;48.416;10.066;2023-04-03T04:44:11;2.70;67.40
31369;DHT22;18004;48.416;10.066;2023-04-03T04:46:37;2.70;67.90
31369;DHT22;18004;48.416;10.066;2023-04-03T04:49:02;2.60;68.90
31369;DHT22;18004;48.416;10.066;2023-04-03T04:51:28;2.60;70.70
31369;DHT22;18004;48.416;10.066;2023-04-03T04:53:54;2.60;72.10
31369;DHT22;18004;48.416;10.066;2023-04-03T04:56:19;2.60;73.00
31369;DHT22;18004;48.416;10.066;2023-04-03T04:58:46;2.60;70.90
31369;DHT22;18004;48.416;10.066;2023-04-03T05:01:12;2.60;72.30
31369;DHT22;18004;48.416;10.066;2023-04-03T05:03:38;2.50;72.90
31369;DHT22;18004;48.416;10.066;2023-04-03T05:06:03;2.50;72.90
31369;DHT22;18004;48.416;10.066;2023-04-03T05:08:30;2.50;74.40
31369;DHT22;18004;48.416;10.066;2023-04-03T05:10:56;2.50;74.20
31369;DHT22;18004;48.416;10.066;2023-04-03T05:13:22;2.50;75.60
31369;DHT22;18004;48.416;10.066;2023-04-03T05:15:47;2.50;76.40
31369;DHT22;18004;48.416;10.066;2023-04-03T05:18:13;2.50;76.20
31369;DHT22;18004;48.416;10.066;2023-04-03T05:20:39;2.50;77.30
31369;DHT22;18004;48.416;10.066;2023-04-03T05:23:05;2.40;77.60
31369;DHT22;18004;48.416;10.066;2023-04-03T05:25:31;2.50;78.00
31369;DHT22;18004;48.416;10.066;2023-04-03T05:27:57;2.40;79.50
31369;DHT22;18004;48.416;10.066;2023-04-03T05:30:23;2.50;79.80
31369;DHT22;18004;48.416;10.066;2023-04-03T05:32:49;2.50;79.80
31369;DHT22;18004;48.416;10.066;2023-04-03T05:35:14;2.50;80.40
31369;DHT22;18004;48.416;10.066;2023-04-03T05:37:40;2.50;80.30
31369;DHT22;18004;48.416;10.066;2023-04-03T05:40:07;2.50;79.70
31369;DHT22;18004;48.416;10.066;2023-04-03T05:42:33;2.40;79.60
31369;DHT22;18004;48.416;10.066;2023-04-03T05:45:00;2.50;80.90
31369;DHT22;18004;48.416;10.066;2023-04-03T05:47:25;2.40;82.40
31369;DHT22;18004;48.416;10.066;2023-04-03T05:49:51;2.50;82.70
31369;DHT22;18004;48.416;10.066;2023-04-03T05:52:27;2.50;81.70
31369;DHT22;18004;48.416;10.066;2023-04-03T05:54:53;2.40;82.90
31369;DHT22;18004;48.416;10.066;2023-04-03T05:57:19;2.40;83.70
31369;DHT22;18004;48.416;10.066;2023-04-03T05:59:46;2.40;82.20
31369;DHT22;18004;48.416;10.066;2023-04-03T06:02:17;2.50;83.50
31369;DHT22;18004;48.416;10.066;2023-04-03T06:04:43;2.50;83.00
31369;DHT22;18004;48.416;10.066;2023-04-03T06:07:13;2.50;84.10
31369;DHT22;18004;48.416;10.066;2023-04-03T06:09:41;2.50;84.60
31369;DHT22;18004;48.416;10.066;2023-04-03T06:12:07;2.50;86.50
31369;DHT22;18004;48.416;10.066;2023-04-03T06:14:33;2.50;87.20
31369;DHT22;18004;48.416;10.066;2023-04-03T06:16:59;2.50;87.20
31369;DHT22;18004;48.416;10.066;2023-04-03T06:19:25;2.50;86.10
31369;DHT22;18004;48.416;10.066;2023-04-03T06:21:51;2.50;87.30
31369;DHT22;18004;48.416;10.066;2023-04-03T06:24:18;2.50;87.80
31369;DHT22;18004;48.416;10.066;2023-04-03T06:26:45;2.60;88.10
31369;DHT22;18004;48.416;10.066;2023-04-03T06:29:11;2.60;87.60
31369;DHT22;18004;48.416;10.066;2023-04-03T06:31:37;2.50;88.20
31369;DHT22;18004;48.416;10.066;2023-04-03T06:34:03;2.50;87.90
31369;DHT22;18004;48.416;10.066;2023-04-03T06:36:29;2.40;88.30
31369;DHT22;18004;48.416;10.066;2023-04-03T06:38:55;2.50;90.00
31369;DHT22;18004;48.416;10.066;2023-04-03T06:41:21;2.50;89.80
31369;DHT22;18004;48.416;10.066;2023-04-03T06:43:47;2.60;90.30
31369;DHT22;18004;48.416;10.066;2023-04-03T06:46:15;2.60;90.00
31369;DHT22;18004;48.416;10.066;2023-04-03T06:48:42;2.70;89.10
31369;DHT22;18004;48.416;10.066;2023-04-03T06:51:26;2.60;88.30
31369;DHT22;18004;48.416;10.066;2023-04-03T06:53:54;2.60;89.40
31369;DHT22;18004;48.416;10.066;2023-04-03T06:56:22;2.70;90.00
31369;DHT22;18004;48.416;10.066;2023-04-03T06:58:48;2.60;89.30
31369;DHT22;18004;48.416;10.066;2023-04-03T07:01:16;2.70;88.80
31369;DHT22;18004;48.416;10.066;2023-04-03T07:03:42;2.60;87.70
31369;DHT22;18004;48.416;10.066;2023-04-03T07:06:12;2.60;88.80
31369;DHT22;18004;48.416;10.066;2023-04-03T07:08:39;2.60;88.90
31369;DHT22;18004;48.416;10.066;2023-04-03T07:11:05;2.70;89.60
31369;DHT22;18004;48.416;10.066;2023-04-03T07:13:31;2.70;88.20
31369;DHT22;18004;48.416;10.066;2023-04-03T07:15:58;2.70;87.60
31369;DHT22;18004;48.416;10.066;2023-04-03T07:18:24;2.70;87.90
31369;DHT22;18004;48.416;10.066;2023-04-03T07:20:51;2.80;89.90
31369;DHT22;18004;48.416;10.066;2023-04-03T07:23:17;2.70;88.30
31369;DHT22;18004;48.416;10.066;2023-04-03T07:25:47;2.70;89.60
31369;DHT22;18004;48.416;10.066;2023-04-03T07:28:13;2.80;90.30
31369;DHT22;18004;48.416;10.066;2023-04-03T07:30:50;2.90;89.40
31369;DHT22;18004;48.416;10.066;2023-04-03T07:33:18;2.90;90.00
31369;DHT22;18004;48.416;10.066;2023-04-03T07:35:44;3.10;89.90
31369;DHT22;18004;48.416;10.066;2023-04-03T07:38:10;3.10;86.90
31369;DHT22;18004;48.416;10.066;2023-04-03T07:40:37;3.10;86.30
31369;DHT22;18004;48.416;10.066;2023-04-03T07:43:03;3.10;85.50
31369;DHT22;18004;48.416;10.066;2023-04-03T07:45:29;3.30;86.40
31369;DHT22;18004;48.416;10.066;2023-04-03T07:47:55;3.30;82.50
31369;DHT22;18004;48.416;10.066;2023-04-03T07:50:21;3.30;83.60
31369;DHT22;18004;48.416;10.066;2023-04-03T07:52:47;3.30;84.60
31369;DHT22;18004;48.416;10.066;2023-04-03T07:55:16;3.40;82.50
31369;DHT22;18004;48.416;10.066;2023-04-03T07:57:42;3.30;80.30
31369;DHT22;18004;48.416;10.066;2023-04-03T08:00:08;3.30;80.30
31369;DHT22;18004;48.416;10.066;2023-04-03T08:02:35;3.40;81.30
31369;DHT22;18004;48.416;10.066;2023-04-03T08:05:00;3.40;79.00
31369;DHT22;18004;48.416;10.066;2023-04-03T08:07:26;3.50;79.00
31369;DHT22;18004;48.416;10.066;2023-04-03T08:09:52;3.50;79.10
31369;DHT22;18004;48.416;10.066;2023-04-03T08:12:18;3.70;79.60
31369;DHT22;18004;48.416;10.066;2023-04-03T08:14:44;3.80;75.50
31369;DHT22;18004;48.416;10.066;2023-04-03T08:17:10;3.70;75.40
31369;DHT22;18004;48.416;10.066;2023-04-03T08:19:40;3.70;77.50
31369;DHT22;18004;48.416;10.066;2023-04-03T08:22:06;3.80;75.20
31369;DHT22;18004;48.416;10.066;2023-04-03T08:24:33;3.90;75.10
31369;DHT22;18004;48.416;10.066;2023-04-03T08:26:59;3.90;74.60
31369;DHT22;18004;48.416;10.066;2023-04-03T08:29:25;4.00;73.80
31369;DHT22;18004;48.416;10.066;2023-04-03T08:31:51;4.00;72.80
31369;DHT22;18004;48.416;10.066;2023-04-03T08:34:18;4.00;71.10
31369;DHT22;18004;48.416;10.066;2023-04-03T08:36:45;4.00;74.50
31369;DHT22;18004;48.416;10.066;2023-04-03T08:39:11;4.10;73.80
31369;DHT22;18004;48.416;10.066;2023-04-03T08:41:44;4.20;72.40
31369;DHT22;18004;48.416;10.066;2023-04-03T08:47:49;4.20;68.70
31369;DHT22;18004;48.416;10.066;2023-04-03T08:50:20;4.20;67.30
31369;DHT22;18004;48.416;10.066;2023-04-03T08:52:50;4.20;64.80
31369;DHT22;18004;48.416;10.066;2023-04-03T08:55:28;4.30;67.30
31369;DHT22;18004;48.416;10.066;2023-04-03T09:00:33;4.40;68.10
31369;DHT22;18004;48.416;10.066;2023-04-03T09:03:00;4.30;68.70
31369;DHT22;18004;48.416;10.066;2023-04-03T09:08:33;4.50;65.40
31369;DHT22;18004;48.416;10.066;2023-04-03T09:11:13;4.60;63.70
31369;DHT22;18004;48.416;10.066;2023-04-03T09:16:39;4.70;63.20
31369;DHT22;18004;48.416;10.066;2023-04-03T09:21:56;4.60;68.20
31369;DHT22;18004;48.416;10.066;2023-04-03T09:24:23;4.50;67.40
31369;DHT22;18004;48.416;10.066;2023-04-03T09:26:57;4.40;70.30
31369;DHT22;18004;48.416;10.066;2023-04-03T09:29:26;4.30;65.20
31369;DHT22;18004;48.416;10.066;2023-04-03T09:32:18;4.40;69.40
31369;DHT22;18004;48.416;10.066;2023-04-03T09:34:45;4.20;66.10
31369;DHT22;18004;48.416;10.066;2023-04-03T09:37:36;4.10;63.80
31369;DHT22;18004;48.416;10.066;2023-04-03T09:40:03;4.00;69.00
31369;DHT22;18004;48.416;10.066;2023-04-03T09:42:30;4.20;67.10
31369;DHT22;18004;48.416;10.066;2023-04-03T09:45:05;4.30;67.70
31369;DHT22;18004;48.416;10.066;2023-04-03T09:47:33;4.30;67.90
31369;DHT22;18004;48.416;10.066;2023-04-03T09:52:42;4.30;68.20
31369;DHT22;18004;48.416;10.066;2023-04-03T09:55:14;4.30;67.60
31369;DHT22;18004;48.416;10.066;2023-04-03T09:57:40;4.40;66.40
31369;DHT22;18004;48.416;10.066;2023-04-03T10:00:23;4.40;65.60
31369;DHT22;18004;48.416;10.066;2023-04-03T10:02:57;4.50;60.20
31369;DHT22;18004;48.416;10.066;2023-04-03T10:05:34;4.50;60.70
31369;DHT22;18004;48.416;10.066;2023-04-03T10:10:36;4.50;61.10
31369;DHT22;18004;48.416;10.066;2023-04-03T10:13:10;4.70;62.00
31369;DHT22;18004;48.416;10.066;2023-04-03T10:15:43;4.90;58.00
31369;DHT22;18004;48.416;10.066;2023-04-03T10:21:02;4.80;54.80
31369;DHT22;18004;48.416;10.066;2023-04-03T10:23:45;4.80;51.70
31369;DHT22;18004;48.416;10.066;2023-04-03T10:26:45;4.90;52.70
31369;DHT22;18004;48.416;10.066;2023-04-03T10:40:22;5.30;44.30
31369;DHT22;18004;48.416;10.066;2023-04-03T10:53:24;4.90;39.90
31369;DHT22;18004;48.416;10.066;2023-04-03T10:56:03;5.00;43.40
31369;DHT22;18004;48.416;10.066;2023-04-03T10:58:43;5.00;41.60
31369;DHT22;18004;48.416;10.066;2023-04-03T11:01:21;5.10;45.40
31369;DHT22;18004;48.416;10.066;2023-04-03T11:03:56;5.30;52.00
31369;DHT22;18004;48.416;10.066;2023-04-03T11:06:25;5.30;56.20
31369;DHT22;18004;48.416;10.066;2023-04-03T11:09:02;5.40;53.10
31369;DHT22;18004;48.416;10.066;2023-04-03T11:11:37;5.20;55.90
31369;DHT22;18004;48.416;10.066;2023-04-03T11:14:15;5.40;54.10
31369;DHT22;18004;48.416;10.066;2023-04-03T11:16:47;5.20;55.10
31369;DHT22;18004;48.416;10.066;2023-04-03T11:22:03;5.30;53.30
31369;DHT22;18004;48.416;10.066;2023-04-03T11:24:32;5.50;56.80
31369;DHT22;18004;48.416;10.066;2023-04-03T11:27:00;5.50;45.00
31369;DHT22;18004;48.416;10.066;2023-04-03T11:29:34;5.30;46.00
31369;DHT22;18004;48.416;10.066;2023-04-03T11:34:39;5.40;48.90
31369;DHT22;18004;48.416;10.066;2023-04-03T11:37:31;5.50;49.40
31369;DHT22;18004;48.416;10.066;2023-04-03T11:42:38;5.40;46.00
31369;DHT22;18004;48.416;10.066;2023-04-03T11:45:22;5.60;46.00
31369;DHT22;18004;48.416;10.066;2023-04-03T11:47:52;5.70;42.40
31369;DHT22;18004;48.416;10.066;2023-04-03T11:50:39;5.70;38.90
31369;DHT22;18004;48.416;10.066;2023-04-03T12:08:27;5.50;44.70
31369;DHT22;18004;48.416;10.066;2023-04-03T12:16:23;5.20;43.20
31369;DHT22;18004;48.416;10.066;2023-04-03T12:18:55;5.10;45.40
31369;DHT22;18004;48.416;10.066;2023-04-03T12:24:39;5.00;45.30
31369;DHT22;18004;48.416;10.066;2023-04-03T12:29:43;4.90;44.30
31369;DHT22;18004;48.416;10.066;2023-04-03T12:35:16;4.90;42.20
31369;DHT22;18004;48.416;10.066;2023-04-03T12:48:27;5.00;44.30
31369;DHT22;18004;48.416;10.066;2023-04-03T12:50:53;5.00;43.50
31369;DHT22;18004;48.416;10.066;2023-04-03T12:53:22;4.90;40.70
31369;DHT22;18004;48.416;10.066;2023-04-03T12:55:57;5.10;41.70
31369;DHT22;18004;48.416;10.066;2023-04-03T12:58:26;5.40;41.90
31369;DHT22;18004;48.416;10.066;2023-04-03T13:01:03;5.50;37.20
31369;DHT22;18004;48.416;10.066;2023-04-03T13:03:29;5.40;35.70
31369;DHT22;18004;48.416;10.066;2023-04-03T13:06:00;5.20;37.20
31369;DHT22;18004;48.416;10.066;2023-04-03T13:08:26;5.20;37.10
31369;DHT22;18004;48.416;10.066;2023-04-03T13:10:54;5.20;36.80
31369;DHT22;18004;48.416;10.066;2023-04-03T13:13:21;5.30;35.80
31369;DHT22;18004;48.416;10.066;2023-04-03T13:15:49;5.30;30.30
31369;DHT22;18004;48.416;10.066;2023-04-03T13:18:35;5.40;30.20
31369;DHT22;18004;48.416;10.066;2023-04-03T13:21:15;5.40;27.60
31369;DHT22;18004;48.416;10.066;2023-04-03T13:23:46;5.40;28.60
31369;DHT22;18004;48.416;10.066;2023-04-03T13:26:14;5.50;29.30
31369;DHT22;18004;48.416;10.066;2023-04-03T13:28:42;5.40;28.90
31369;DHT22;18004;48.416;10.066;2023-04-03T13:33:42;5.40;31.00
31369;DHT22;18004;48.416;10.066;2023-04-03T13:36:21;5.70;30.00
31369;DHT22;18004;48.416;10.066;2023-04-03T13:41:42;5.40;27.60
31369;DHT22;18004;48.416;10.066;2023-04-03T13:44:27;5.40;29.60
31369;DHT22;18004;48.416;10.066;2023-04-03T13:46:56;5.50;27.60
31369;DHT22;18004;48.416;10.066;2023-04-03T13:49:34;5.50;27.60
31369;DHT22;18004;48.416;10.066;2023-04-03T13:52:17;5.50;27.60
31369;DHT22;18004;48.416;10.066;2023-04-03T13:54:53;5.50;27.10
31369;DHT22;18004;48.416;10.066;2023-04-03T13:57:20;5.80;25.80
31369;DHT22;18004;48.416;10.066;2023-04-03T13:59:46;6.10;24.60
31369;DHT22;18004;48.416;10.066;2023-04-03T14:02:21;6.50;20.60
31369;DHT22;18004;48.416;10.066;2023-04-03T14:04:57;6.80;19.70
31369;DHT22;18004;48.416;10.066;2023-04-03T14:07:26;6.90;17.10
31369;DHT22;18004;48.416;10.066;2023-04-03T14:09:52;6.90;15.10
31369;DHT22;18004;48.416;10.066;2023-04-03T14:12:27;6.90;15.90
31369;DHT22;18004;48.416;10.066;2023-04-03T14:14:55;6.80;14.90
31369;DHT22;18004;48.416;10.066;2023-04-03T14:17:23;6.20;14.10
31369;DHT22;18004;48.416;10.066;2023-04-03T14:19:50;6.30;15.50
31369;DHT22;18004;48.416;10.066;2023-04-03T14:22:23;6.20;14.70
31369;DHT22;18004;48.416;10.066;2023-04-03T14:24:51;6.20;16.20
31369;DHT22;18004;48.416;10.066;2023-04-03T14:27:21;6.20;17.10
31369;DHT22;18004;48.416;10.066;2023-04-03T14:29:48;6.20;16.60
31369;DHT22;18004;48.416;10.066;2023-04-03T14:32:16;6.50;15.00
31369;DHT22;18004;48.416;10.066;2023-04-03T14:34:43;6.60;16.20
31369;DHT22;18004;48.416;10.066;2023-04-03T14:37:15;6.50;14.20
31369;DHT22;18004;48.416;10.066;2023-04-03T14:39:41;6.30;15.30
31369;DHT22;18004;48.416;10.066;2023-04-03T14:42:13;6.20;15.90
31369;DHT22;18004;48.416;10.066;2023-04-03T14:44:39;5.90;16.90
31369;DHT22;18004;48.416;10.066;2023-04-03T14:47:08;5.70;18.40
31369;DHT22;18004;48.416;10.066;2023-04-03T14:49:34;5.60;19.00
31369;DHT22;18004;48.416;10.066;2023-04-03T14:52:00;5.50;17.00
31369;DHT22;18004;48.416;10.066;2023-04-03T14:54:26;5.50;19.00
31369;DHT22;18004;48.416;10.066;2023-04-03T14:56:54;5.60;18.10
31369;DHT22;18004;48.416;10.066;2023-04-03T14:59:21;5.60;18.40
31369;DHT22;18004;48.416;10.066;2023-04-03T15:01:48;5.60;17.90
31369;DHT22;18004;48.416;10.066;2023-04-03T15:04:19;5.70;16.50
31369;DHT22;18004;48.416;10.066;2023-04-03T15:06:47;5.60;15.30
31369;DHT22;18004;48.416;10.066;2023-04-03T15:09:21;5.60;16.20
31369;DHT22;18004;48.416;10.066;2023-04-03T15:11:49;5.70;16.20
31369;DHT22;18004;48.416;10.066;2023-04-03T15:14:15;5.90;17.30
31369;DHT22;18004;48.416;10.066;2023-04-03T15:16:41;6.00;14.60
31369;DHT22;18004;48.416;10.066;2023-04-03T15:19:07;6.20;15.00
31369;DHT22;18004;48.416;10.066;2023-04-03T15:21:32;6.40;13.80
31369;DHT22;18004;48.416;10.066;2023-04-03T15:23:58;6.50;14.00
31369;DHT22;18004;48.416;10.066;2023-04-03T15:26:25;6.70;12.20
31369;DHT22;18004;48.416;10.066;2023-04-03T15:28:51;6.70;9.70
31369;DHT22;18004;48.416;10.066;2023-04-03T15:31:16;6.70;11.90
31369;DHT22;18004;48.416;10.066;2023-04-03T15:33:42;6.30;11.60
31369;DHT22;18004;48.416;10.066;2023-04-03T15:36:08;6.30;12.20
31369;DHT22;18004;48.416;10.066;2023-04-03T15:38:34;6.40;12.20
31369;DHT22;18004;48.416;10.066;2023-04-03T15:41:00;6.50;10.90
31369;DHT22;18004;48.416;10.066;2023-04-03T15:43:26;6.50;11.00
31369;DHT22;18004;48.416;10.066;2023-04-03T15:45:52;6.40;10.30
31369;DHT22;18004;48.416;10.066;2023-04-03T15:48:21;6.10;9.40
31369;DHT22;18004;48.416;10.066;2023-04-03T15:50:47;6.10;10.90
31369;DHT22;18004;48.416;10.066;2023-04-03T15:53:13;6.20;11.60
31369;DHT22;18004;48.416;10.066;2023-04-03T15:55:39;6.10;10.40
31369;DHT22;18004;48.416;10.066;2023-04-03T15:58:04;5.90;10.60
31369;DHT22;18004;48.416;10.066;2023-04-03T16:00:32;5.90;9.70
31369;DHT22;18004;48.416;10.066;2023-04-03T16:03:21;5.80;11.10
31369;DHT22;18004;48.416;10.066;2023-04-03T16:05:47;5.80;9.90
31369;DHT22;18004;48.416;10.066;2023-04-03T16:08:13;5.70;10.00
31369;DHT22;18004;48.416;10.066;2023-04-03T16:10:39;5.70;9.80
31369;DHT22;18004;48.416;10.066;2023-04-03T16:13:06;5.70;9.90
31369;DHT22;18004;48.416;10.066;2023-04-03T16:15:33;5.80;9.10
31369;DHT22;18004;48.416;10.066;2023-04-03T16:18:00;5.70;9.80
31369;DHT22;18004;48.416;10.066;2023-04-03T16:20:26;5.80;10.40
31369;DHT22;18004;48.416;10.066;2023-04-03T16:22:52;5.70;10.40
31369;DHT22;18004;48.416;10.066;2023-04-03T16:25:19;5.60;10.50
31369;DHT22;18004;48.416;10.066;2023-04-03T16:27:45;5.60;11.30
31369;DHT22;18004;48.416;10.066;2023-04-03T16:30:11;5.60;10.80
31369;DHT22;18004;48.416;10.066;2023-04-03T16:32:39;5.50;10.90
31369;DHT22;18004;48.416;10.066;2023-04-03T16:35:06;5.50;10.90
31369;DHT22;18004;48.416;10.066;2023-04-03T16:37:32;5.50;10.60
31369;DHT22;18004;48.416;10.066;2023-04-03T16:39:57;5.60;10.90
31369;DHT22;18004;48.416;10.066;2023-04-03T16:42:24;5.50;10.90
31369;DHT22;18004;48.416;10.066;2023-04-03T16:44:50;5.50;11.20
31369;DHT22;18004;48.416;10.066;2023-04-03T16:47:16;5.50;11.90
31369;DHT22;18004;48.416;10.066;2023-04-03T16:49:45;5.40;11.90
31369;DHT22;18004;48.416;10.066;2023-04-03T16:52:11;5.40;12.70
31369;DHT22;18004;48.416;10.066;2023-04-03T16:54:37;5.30;12.40
31369;DHT22;18004;48.416;10.066;2023-04-03T16:57:03;5.30;12.60
31369;DHT22;18004;48.416;10.066;2023-04-03T16:59:29;5.20;11.50
31369;DHT22;18004;48.416;10.066;2023-04-03T17:01:55;5.20;12.10
31369;DHT22;18004;48.416;10.066;2023-04-03T17:04:21;5.30;12.00
31369;DHT22;18004;48.416;10.066;2023-04-03T17:06:47;5.30;12.40
31369;DHT22;18004;48.416;10.066;2023-04-03T17:09:13;5.40;12.40
31369;DHT22;18004;48.416;10.066;2023-04-03T17:11:38;5.40;11.50
31369;DHT22;18004;48.416;10.066;2023-04-03T17:14:04;5.30;11.20
31369;DHT22;18004;48.416;10.066;2023-04-03T17:16:32;5.30;11.90
31369;DHT22;18004;48.416;10.066;2023-04-03T17:18:58;5.30;11.30